sensor_id;sensor_type;location;lat;lon;timestamp;temperature;humidity
21331;DHT22;10824;51.632;4.950;2022-12-10T00:01:24;-0.50;99.90
21331;DHT22;10824;51.632;4.950;2022-12-10T00:03:52;-0.50;99.90
21331;DHT22;10824;51.632;4.950;2022-12-10T00:06:24;-0.50;99.90
21331;DHT22;10824;51.632;4.950;2022-12-10T00:08:52;-0.50;99.90
21331;DHT22;10824;51.632;4.950;2022-12-10T00:11:20;-0.60;99.90
21331;DHT22;10824;51.632;4.950;2022-12-10T00:13:49;-0.50;99.90
21331;DHT22;10824;51.632;4.950;2022-12-10T00:16:18;-0.50;99.90
21331;DHT22;10824;51.632;4.950;2022-12-10T00:18:46;-0.50;99.90
21331;DHT22;10824;51.632;4.950;2022-12-10T00:21:16;-0.50;99.90
21331;DHT22;10824;51.632;4.950;2022-12-10T00:23:44;-0.50;99.90
21331;DHT22;10824;51.632;4.950;2022-12-10T00:26:23;-0.50;99.90
21331;DHT22;10824;51.632;4.950;2022-12-10T00:28:52;-0.50;99.90
21331;DHT22;10824;51.632;4.950;2022-12-10T00:31:25;-0.40;99.90
21331;DHT22;10824;51.632;4.950;2022-12-10T00:33:55;-0.40;99.90
21331;DHT22;10824;51.632;4.950;2022-12-10T00:36:27;-0.50;99.90
21331;DHT22;10824;51.632;4.950;2022-12-10T00:38:55;-0.50;99.90
21331;DHT22;10824;51.632;4.950;2022-12-10T00:41:27;-0.40;99.90
21331;DHT22;10824;51.632;4.950;2022-12-10T00:43:54;-0.40;99.90
21331;DHT22;10824;51.632;4.950;2022-12-10T00:46:21;-0.40;99.90
21331;DHT22;10824;51.632;4.950;2022-12-10T00:48:48;-0.40;99.90
21331;DHT22;10824;51.632;4.950;2022-12-10T00:51:18;-0.50;99.90
21331;DHT22;10824;51.632;4.950;2022-12-10T00:53:46;-0.50;99.90
21331;DHT22;10824;51.632;4.950;2022-12-10T00:56:16;-0.60;99.90
21331;DHT22;10824;51.632;4.950;2022-12-10T00:58:43;-0.60;99.90
21331;DHT22;10824;51.632;4.950;2022-12-10T01:03:47;-0.50;99.90
21331;DHT22;10824;51.632;4.950;2022-12-10T01:06:19;-0.60;99.90
21331;DHT22;10824;51.632;4.950;2022-12-10T01:08:47;-0.60;99.90
21331;DHT22;10824;51.632;4.950;2022-12-10T01:11:17;-0.60;99.90
21331;DHT22;10824;51.632;4.950;2022-12-10T01:13:46;-0.60;99.90
21331;DHT22;10824;51.632;4.950;2022-12-10T01:16:16;-0.60;99.90
21331;DHT22;10824;51.632;4.950;2022-12-10T01:18:45;-0.50;99.90
21331;DHT22;10824;51.632;4.950;2022-12-10T01:21:15;-0.70;99.90
21331;DHT22;10824;51.632;4.950;2022-12-10T01:23:44;-0.60;99.90
21331;DHT22;10824;51.632;4.950;2022-12-10T01:26:14;-0.60;99.90
21331;DHT22;10824;51.632;4.950;2022-12-10T01:28:42;-0.60;99.90
21331;DHT22;10824;51.632;4.950;2022-12-10T01:31:15;-0.50;99.90
21331;DHT22;10824;51.632;4.950;2022-12-10T01:33:42;-0.40;99.90
21331;DHT22;10824;51.632;4.950;2022-12-10T01:36:28;-0.50;99.90
21331;DHT22;10824;51.632;4.950;2022-12-10T01:38:56;-0.50;99.90
21331;DHT22;10824;51.632;4.950;2022-12-10T01:41:34;-0.50;99.90
21331;DHT22;10824;51.632;4.950;2022-12-10T01:44:04;-0.50;99.90
21331;DHT22;10824;51.632;4.950;2022-12-10T01:46:42;-0.60;99.90
21331;DHT22;10824;51.632;4.950;2022-12-10T01:49:12;-0.60;99.90
21331;DHT22;10824;51.632;4.950;2022-12-10T01:51:42;-0.60;99.90
21331;DHT22;10824;51.632;4.950;2022-12-10T01:54:13;-0.60;99.90
21331;DHT22;10824;51.632;4.950;2022-12-10T01:56:44;-0.60;99.90
21331;DHT22;10824;51.632;4.950;2022-12-10T01:59:12;-0.60;99.90
21331;DHT22;10824;51.632;4.950;2022-12-10T02:04:29;-0.50;99.90
21331;DHT22;10824;51.632;4.950;2022-12-10T02:07:01;-0.50;99.90
21331;DHT22;10824;51.632;4.950;2022-12-10T02:12:23;-0.50;99.90
21331;DHT22;10824;51.632;4.950;2022-12-10T02:17:30;-0.50;99.90
21331;DHT22;10824;51.632;4.950;2022-12-10T02:22:44;-0.50;99.90
21331;DHT22;10824;51.632;4.950;2022-12-10T02:25:14;-0.40;99.90
21331;DHT22;10824;51.632;4.950;2022-12-10T02:28:03;-0.50;99.90
21331;DHT22;10824;51.632;4.950;2022-12-10T02:30:33;-0.50;99.90
21331;DHT22;10824;51.632;4.950;2022-12-10T02:33:03;-0.50;99.90
21331;DHT22;10824;51.632;4.950;2022-12-10T02:35:33;-0.50;99.90
21331;DHT22;10824;51.632;4.950;2022-12-10T02:38:11;-0.50;99.90
21331;DHT22;10824;51.632;4.950;2022-12-10T02:40:47;-0.50;99.90
21331;DHT22;10824;51.632;4.950;2022-12-10T02:43:15;-0.40;99.90
21331;DHT22;10824;51.632;4.950;2022-12-10T02:45:43;-0.40;99.90
21331;DHT22;10824;51.632;4.950;2022-12-10T02:48:13;-0.40;99.90
21331;DHT22;10824;51.632;4.950;2022-12-10T02:50:42;-0.40;99.90
21331;DHT22;10824;51.632;4.950;2022-12-10T02:53:09;-0.30;99.90
21331;DHT22;10824;51.632;4.950;2022-12-10T03:04:06;-0.40;99.90
21331;DHT22;10824;51.632;4.950;2022-12-10T03:06:42;-0.30;99.90
21331;DHT22;10824;51.632;4.950;2022-12-10T03:09:17;-0.40;99.90
21331;DHT22;10824;51.632;4.950;2022-12-10T03:11:47;-0.40;99.90
21331;DHT22;10824;51.632;4.950;2022-12-10T03:14:28;-0.40;99.90
21331;DHT22;10824;51.632;4.950;2022-12-10T03:16:58;-0.40;99.90
21331;DHT22;10824;51.632;4.950;2022-12-10T03:19:36;-0.50;99.90
21331;DHT22;10824;51.632;4.950;2022-12-10T03:22:05;-0.40;99.90
21331;DHT22;10824;51.632;4.950;2022-12-10T03:24:35;-0.50;99.90
21331;DHT22;10824;51.632;4.950;2022-12-10T03:27:05;-0.50;99.90
21331;DHT22;10824;51.632;4.950;2022-12-10T03:32:14;-0.50;99.90
21331;DHT22;10824;51.632;4.950;2022-12-10T03:34:43;-0.60;99.90
21331;DHT22;10824;51.632;4.950;2022-12-10T03:37:12;-0.60;99.90
21331;DHT22;10824;51.632;4.950;2022-12-10T03:39:40;-0.60;99.90
21331;DHT22;10824;51.632;4.950;2022-12-10T03:42:09;-0.50;99.90
21331;DHT22;10824;51.632;4.950;2022-12-10T03:44:37;-0.50;99.90
21331;DHT22;10824;51.632;4.950;2022-12-10T03:47:06;-0.50;99.90
21331;DHT22;10824;51.632;4.950;2022-12-10T03:49:35;-0.50;99.90
21331;DHT22;10824;51.632;4.950;2022-12-10T03:52:02;-0.40;99.90
21331;DHT22;10824;51.632;4.950;2022-12-10T03:54:30;-0.40;99.90
21331;DHT22;10824;51.632;4.950;2022-12-10T03:56:57;-0.50;99.90
21331;DHT22;10824;51.632;4.950;2022-12-10T03:59:24;-0.50;99.90
21331;DHT22;10824;51.632;4.950;2022-12-10T04:01:51;-0.50;99.90
21331;DHT22;10824;51.632;4.950;2022-12-10T04:04:18;-0.60;99.90
21331;DHT22;10824;51.632;4.950;2022-12-10T04:06:45;-0.60;99.90
21331;DHT22;10824;51.632;4.950;2022-12-10T04:09:14;-0.70;99.90
21331;DHT22;10824;51.632;4.950;2022-12-10T04:11:42;-0.80;99.90
21331;DHT22;10824;51.632;4.950;2022-12-10T04:14:10;-0.70;99.90
21331;DHT22;10824;51.632;4.950;2022-12-10T04:16:56;-0.70;99.90
21331;DHT22;10824;51.632;4.950;2022-12-10T04:19:24;-0.60;99.90
21331;DHT22;10824;51.632;4.950;2022-12-10T04:21:51;-0.70;99.90
21331;DHT22;10824;51.632;4.950;2022-12-10T04:24:37;-0.60;99.90
21331;DHT22;10824;51.632;4.950;2022-12-10T04:27:35;-0.70;99.90
21331;DHT22;10824;51.632;4.950;2022-12-10T04:30:05;-0.80;99.90
21331;DHT22;10824;51.632;4.950;2022-12-10T04:32:33;-0.80;99.90
21331;DHT22;10824;51.632;4.950;2022-12-10T04:35:01;-0.80;99.90
21331;DHT22;10824;51.632;4.950;2022-12-10T04:37:28;-0.90;99.90
21331;DHT22;10824;51.632;4.950;2022-12-10T04:39:55;-0.80;99.90
21331;DHT22;10824;51.632;4.950;2022-12-10T04:42:23;-0.90;99.90
21331;DHT22;10824;51.632;4.950;2022-12-10T04:44:50;-0.80;99.90
21331;DHT22;10824;51.632;4.950;2022-12-10T04:47:17;-0.80;99.90
21331;DHT22;10824;51.632;4.950;2022-12-10T04:49:44;-0.80;99.90
21331;DHT22;10824;51.632;4.950;2022-12-10T04:52:12;-0.90;99.90
21331;DHT22;10824;51.632;4.950;2022-12-10T04:54:40;-0.80;99.90
21331;DHT22;10824;51.632;4.950;2022-12-10T04:57:08;-0.90;99.90
21331;DHT22;10824;51.632;4.950;2022-12-10T04:59:36;-0.90;99.90
21331;DHT22;10824;51.632;4.950;2022-12-10T05:02:04;-0.90;99.90
21331;DHT22;10824;51.632;4.950;2022-12-10T05:04:31;-0.90;99.90
21331;DHT22;10824;51.632;4.950;2022-12-10T05:06:59;-0.90;99.90
21331;DHT22;10824;51.632;4.950;2022-12-10T05:09:26;-0.90;99.90
21331;DHT22;10824;51.632;4.950;2022-12-10T05:11:53;-0.90;99.90
21331;DHT22;10824;51.632;4.950;2022-12-10T05:14:20;-0.80;99.90
21331;DHT22;10824;51.632;4.950;2022-12-10T05:16:50;-0.70;99.90
21331;DHT22;10824;51.632;4.950;2022-12-10T05:19:17;-0.80;99.90
21331;DHT22;10824;51.632;4.950;2022-12-10T05:21:46;-0.70;99.90
21331;DHT22;10824;51.632;4.950;2022-12-10T05:24:32;-0.70;99.90
21331;DHT22;10824;51.632;4.950;2022-12-10T05:26:59;-0.70;99.90
21331;DHT22;10824;51.632;4.950;2022-12-10T05:29:27;-0.70;99.90
21331;DHT22;10824;51.632;4.950;2022-12-10T05:31:54;-0.90;99.90
21331;DHT22;10824;51.632;4.950;2022-12-10T05:34:21;-0.90;99.90
21331;DHT22;10824;51.632;4.950;2022-12-10T05:36:49;-0.90;99.90
21331;DHT22;10824;51.632;4.950;2022-12-10T05:39:17;-0.90;99.90
21331;DHT22;10824;51.632;4.950;2022-12-10T05:41:44;-0.90;99.90
21331;DHT22;10824;51.632;4.950;2022-12-10T05:44:12;-0.90;99.90
21331;DHT22;10824;51.632;4.950;2022-12-10T05:46:39;-0.90;99.90
21331;DHT22;10824;51.632;4.950;2022-12-10T05:49:07;-0.80;99.90
21331;DHT22;10824;51.632;4.950;2022-12-10T05:51:35;-0.80;99.90
21331;DHT22;10824;51.632;4.950;2022-12-10T05:54:04;-0.90;99.90
21331;DHT22;10824;51.632;4.950;2022-12-10T05:56:31;-1.00;99.90
21331;DHT22;10824;51.632;4.950;2022-12-10T05:59:01;-1.00;99.90
21331;DHT22;10824;51.632;4.950;2022-12-10T06:01:33;-1.00;99.90
21331;DHT22;10824;51.632;4.950;2022-12-10T06:04:03;-0.90;99.90
21331;DHT22;10824;51.632;4.950;2022-12-10T06:06:32;-0.90;99.90
21331;DHT22;10824;51.632;4.950;2022-12-10T06:08:59;-1.00;99.90
21331;DHT22;10824;51.632;4.950;2022-12-10T06:11:27;-1.00;99.90
21331;DHT22;10824;51.632;4.950;2022-12-10T06:13:56;-0.90;99.90
21331;DHT22;10824;51.632;4.950;2022-12-10T06:16:24;-0.80;99.90
21331;DHT22;10824;51.632;4.950;2022-12-10T06:18:52;-1.00;99.90
21331;DHT22;10824;51.632;4.950;2022-12-10T06:21:20;-1.00;99.90
21331;DHT22;10824;51.632;4.950;2022-12-10T06:23:48;-1.10;99.90
21331;DHT22;10824;51.632;4.950;2022-12-10T06:26:20;-1.00;99.90
21331;DHT22;10824;51.632;4.950;2022-12-10T06:28:49;-1.00;99.90
21331;DHT22;10824;51.632;4.950;2022-12-10T06:31:17;-1.00;99.90
21331;DHT22;10824;51.632;4.950;2022-12-10T06:33:44;-1.10;99.90
21331;DHT22;10824;51.632;4.950;2022-12-10T06:36:12;-0.90;99.90
21331;DHT22;10824;51.632;4.950;2022-12-10T06:38:41;-0.90;99.90
21331;DHT22;10824;51.632;4.950;2022-12-10T06:41:10;-0.90;99.90
21331;DHT22;10824;51.632;4.950;2022-12-10T06:43:37;-0.90;99.90
21331;DHT22;10824;51.632;4.950;2022-12-10T06:46:07;-0.90;99.90
21331;DHT22;10824;51.632;4.950;2022-12-10T06:48:34;-1.00;99.90
21331;DHT22;10824;51.632;4.950;2022-12-10T06:51:03;-1.10;99.90
21331;DHT22;10824;51.632;4.950;2022-12-10T06:53:32;-1.00;99.90
21331;DHT22;10824;51.632;4.950;2022-12-10T06:56:00;-1.00;99.90
21331;DHT22;10824;51.632;4.950;2022-12-10T06:58:31;-0.90;99.90
21331;DHT22;10824;51.632;4.950;2022-12-10T07:01:06;-0.90;99.90
21331;DHT22;10824;51.632;4.950;2022-12-10T07:03:34;-0.90;99.90
21331;DHT22;10824;51.632;4.950;2022-12-10T07:06:01;-0.90;99.90
21331;DHT22;10824;51.632;4.950;2022-12-10T07:08:29;-0.90;99.90
21331;DHT22;10824;51.632;4.950;2022-12-10T07:10:56;-1.00;99.90
21331;DHT22;10824;51.632;4.950;2022-12-10T07:13:24;-1.00;99.90
21331;DHT22;10824;51.632;4.950;2022-12-10T07:15:56;-1.00;99.90
21331;DHT22;10824;51.632;4.950;2022-12-10T07:18:24;-0.90;99.90
21331;DHT22;10824;51.632;4.950;2022-12-10T07:20:51;-0.90;99.90
21331;DHT22;10824;51.632;4.950;2022-12-10T07:23:19;-0.80;99.90
21331;DHT22;10824;51.632;4.950;2022-12-10T07:25:46;-0.80;99.90
21331;DHT22;10824;51.632;4.950;2022-12-10T07:28:13;-0.80;99.90
21331;DHT22;10824;51.632;4.950;2022-12-10T07:30:40;-0.90;99.90
21331;DHT22;10824;51.632;4.950;2022-12-10T07:33:07;-0.90;99.90
21331;DHT22;10824;51.632;4.950;2022-12-10T07:35:34;-1.00;99.90
21331;DHT22;10824;51.632;4.950;2022-12-10T07:38:01;-1.00;99.90
21331;DHT22;10824;51.632;4.950;2022-12-10T07:40:28;-1.10;99.90
21331;DHT22;10824;51.632;4.950;2022-12-10T07:42:55;-1.00;99.90
21331;DHT22;10824;51.632;4.950;2022-12-10T07:45:23;-1.10;99.90
21331;DHT22;10824;51.632;4.950;2022-12-10T07:47:50;-1.00;99.90
21331;DHT22;10824;51.632;4.950;2022-12-10T07:50:18;-1.00;99.90
21331;DHT22;10824;51.632;4.950;2022-12-10T07:52:44;-0.90;99.90
21331;DHT22;10824;51.632;4.950;2022-12-10T07:55:11;-0.80;99.90
21331;DHT22;10824;51.632;4.950;2022-12-10T07:57:38;-0.80;99.90
21331;DHT22;10824;51.632;4.950;2022-12-10T08:00:06;-0.80;99.90
21331;DHT22;10824;51.632;4.950;2022-12-10T08:02:37;-0.90;99.90
21331;DHT22;10824;51.632;4.950;2022-12-10T08:05:05;-0.90;99.90
21331;DHT22;10824;51.632;4.950;2022-12-10T08:07:33;-1.00;99.90
21331;DHT22;10824;51.632;4.950;2022-12-10T08:10:00;-0.90;99.90
21331;DHT22;10824;51.632;4.950;2022-12-10T08:12:27;-0.90;99.90
21331;DHT22;10824;51.632;4.950;2022-12-10T08:14:54;-0.90;99.90
21331;DHT22;10824;51.632;4.950;2022-12-10T08:17:21;-0.90;99.90
21331;DHT22;10824;51.632;4.950;2022-12-10T08:19:48;-0.90;99.90
21331;DHT22;10824;51.632;4.950;2022-12-10T08:22:17;-0.90;99.90
21331;DHT22;10824;51.632;4.950;2022-12-10T08:24:44;-0.90;99.90
21331;DHT22;10824;51.632;4.950;2022-12-10T08:27:11;-0.90;99.90
21331;DHT22;10824;51.632;4.950;2022-12-10T08:29:38;-0.80;99.90
21331;DHT22;10824;51.632;4.950;2022-12-10T08:32:05;-0.80;99.90
21331;DHT22;10824;51.632;4.950;2022-12-10T08:34:33;-0.80;99.90
21331;DHT22;10824;51.632;4.950;2022-12-10T08:37:00;-0.80;99.90
21331;DHT22;10824;51.632;4.950;2022-12-10T08:39:27;-0.80;99.90
21331;DHT22;10824;51.632;4.950;2022-12-10T08:41:54;-0.70;99.90
21331;DHT22;10824;51.632;4.950;2022-12-10T08:44:21;-0.80;99.90
21331;DHT22;10824;51.632;4.950;2022-12-10T08:46:48;-0.80;99.90
21331;DHT22;10824;51.632;4.950;2022-12-10T08:49:15;-0.70;99.90
21331;DHT22;10824;51.632;4.950;2022-12-10T08:51:42;-0.80;99.90
21331;DHT22;10824;51.632;4.950;2022-12-10T08:54:09;-0.80;99.90
21331;DHT22;10824;51.632;4.950;2022-12-10T08:56:36;-0.90;99.90
21331;DHT22;10824;51.632;4.950;2022-12-10T08:59:06;-0.90;99.90
21331;DHT22;10824;51.632;4.950;2022-12-10T09:01:33;-0.80;99.90
21331;DHT22;10824;51.632;4.950;2022-12-10T09:04:01;-0.90;99.90
21331;DHT22;10824;51.632;4.950;2022-12-10T09:06:28;-0.80;99.90
21331;DHT22;10824;51.632;4.950;2022-12-10T09:08:55;-0.90;99.90
21331;DHT22;10824;51.632;4.950;2022-12-10T09:11:26;-0.80;99.90
21331;DHT22;10824;51.632;4.950;2022-12-10T09:13:54;-0.90;99.90
21331;DHT22;10824;51.632;4.950;2022-12-10T09:16:27;-0.90;99.90
21331;DHT22;10824;51.632;4.950;2022-12-10T09:18:54;-0.80;99.90
21331;DHT22;10824;51.632;4.950;2022-12-10T09:21:21;-0.80;99.90
21331;DHT22;10824;51.632;4.950;2022-12-10T09:23:49;-0.80;99.90
21331;DHT22;10824;51.632;4.950;2022-12-10T09:26:18;-0.80;99.90
21331;DHT22;10824;51.632;4.950;2022-12-10T09:28:46;-0.70;99.90
21331;DHT22;10824;51.632;4.950;2022-12-10T09:31:16;-0.70;99.90
21331;DHT22;10824;51.632;4.950;2022-12-10T09:33:48;-0.70;99.90
21331;DHT22;10824;51.632;4.950;2022-12-10T09:36:15;-0.70;99.90
21331;DHT22;10824;51.632;4.950;2022-12-10T09:38:44;-0.60;99.90
21331;DHT22;10824;51.632;4.950;2022-12-10T09:41:27;-0.60;99.90
21331;DHT22;10824;51.632;4.950;2022-12-10T09:47:08;-0.60;99.90
21331;DHT22;10824;51.632;4.950;2022-12-10T09:52:05;-0.60;99.90
21331;DHT22;10824;51.632;4.950;2022-12-10T09:54:38;-0.60;99.90
21331;DHT22;10824;51.632;4.950;2022-12-10T09:57:15;-0.70;99.90
21331;DHT22;10824;51.632;4.950;2022-12-10T09:59:49;-0.80;99.90
21331;DHT22;10824;51.632;4.950;2022-12-10T10:02:30;-0.70;99.90
21331;DHT22;10824;51.632;4.950;2022-12-10T10:07:42;-0.70;99.90
21331;DHT22;10824;51.632;4.950;2022-12-10T10:12:47;-0.70;99.90
21331;DHT22;10824;51.632;4.950;2022-12-10T10:15:20;-0.60;99.90
21331;DHT22;10824;51.632;4.950;2022-12-10T10:17:49;-0.60;99.90
21331;DHT22;10824;51.632;4.950;2022-12-10T10:20:19;-0.60;99.90
21331;DHT22;10824;51.632;4.950;2022-12-10T10:22:46;-0.70;99.90
21331;DHT22;10824;51.632;4.950;2022-12-10T10:25:16;-0.60;99.90
21331;DHT22;10824;51.632;4.950;2022-12-10T10:27:44;-0.70;99.90
21331;DHT22;10824;51.632;4.950;2022-12-10T10:30:20;-0.70;99.90
21331;DHT22;10824;51.632;4.950;2022-12-10T10:32:55;-0.70;99.90
21331;DHT22;10824;51.632;4.950;2022-12-10T10:35:29;-0.60;99.90
21331;DHT22;10824;51.632;4.950;2022-12-10T10:38:01;-0.50;99.90
21331;DHT22;10824;51.632;4.950;2022-12-10T10:40:45;-0.40;99.90
21331;DHT22;10824;51.632;4.950;2022-12-10T10:45:56;-0.60;99.90
21331;DHT22;10824;51.632;4.950;2022-12-10T10:48:26;-0.50;99.90
21331;DHT22;10824;51.632;4.950;2022-12-10T10:51:19;-0.50;99.90
21331;DHT22;10824;51.632;4.950;2022-12-10T10:53:49;-0.50;99.90
21331;DHT22;10824;51.632;4.950;2022-12-10T10:56:27;-0.40;99.90
21331;DHT22;10824;51.632;4.950;2022-12-10T11:01:54;-0.50;99.90
21331;DHT22;10824;51.632;4.950;2022-12-10T11:04:29;-0.40;99.90
21331;DHT22;10824;51.632;4.950;2022-12-10T11:07:01;-0.40;99.90
21331;DHT22;10824;51.632;4.950;2022-12-10T11:09:32;-0.40;99.90
21331;DHT22;10824;51.632;4.950;2022-12-10T11:12:05;-0.40;99.90
21331;DHT22;10824;51.632;4.950;2022-12-10T11:14:38;-0.40;99.90
21331;DHT22;10824;51.632;4.950;2022-12-10T11:17:18;-0.40;99.90
21331;DHT22;10824;51.632;4.950;2022-12-10T11:20:18;-0.40;99.90
21331;DHT22;10824;51.632;4.950;2022-12-10T11:23:12;-0.40;99.90
21331;DHT22;10824;51.632;4.950;2022-12-10T11:26:09;-0.30;99.90
21331;DHT22;10824;51.632;4.950;2022-12-10T11:32:06;-0.20;99.90
21331;DHT22;10824;51.632;4.950;2022-12-10T11:35:00;-0.30;99.90
21331;DHT22;10824;51.632;4.950;2022-12-10T11:37:36;-0.20;99.90
21331;DHT22;10824;51.632;4.950;2022-12-10T11:50:52;-0.10;99.90
21331;DHT22;10824;51.632;4.950;2022-12-10T12:06:59;-0.10;99.90
21331;DHT22;10824;51.632;4.950;2022-12-10T12:15:21;-0.10;99.90
21331;DHT22;10824;51.632;4.950;2022-12-10T12:21:12;0.00;99.90
21331;DHT22;10824;51.632;4.950;2022-12-10T12:23:45;0.10;99.90
21331;DHT22;10824;51.632;4.950;2022-12-10T12:28:51;0.10;99.90
21331;DHT22;10824;51.632;4.950;2022-12-10T12:31:22;0.10;99.90
21331;DHT22;10824;51.632;4.950;2022-12-10T12:34:29;0.00;99.90
21331;DHT22;10824;51.632;4.950;2022-12-10T12:37:01;0.00;99.90
21331;DHT22;10824;51.632;4.950;2022-12-10T12:39:45;0.00;99.90
21331;DHT22;10824;51.632;4.950;2022-12-10T12:42:29;0.00;99.90
21331;DHT22;10824;51.632;4.950;2022-12-10T12:45:03;0.10;99.90
21331;DHT22;10824;51.632;4.950;2022-12-10T12:50:42;0.10;99.90
21331;DHT22;10824;51.632;4.950;2022-12-10T12:53:16;0.10;99.90
21331;DHT22;10824;51.632;4.950;2022-12-10T12:55:52;0.10;99.90
21331;DHT22;10824;51.632;4.950;2022-12-10T13:03:45;0.10;99.90
21331;DHT22;10824;51.632;4.950;2022-12-10T13:29:51;0.00;99.90
21331;DHT22;10824;51.632;4.950;2022-12-10T13:32:41;0.10;99.90
21331;DHT22;10824;51.632;4.950;2022-12-10T13:40:56;0.00;99.90
21331;DHT22;10824;51.632;4.950;2022-12-10T13:43:38;0.00;99.90
21331;DHT22;10824;51.632;4.950;2022-12-10T13:46:49;0.20;99.90
21331;DHT22;10824;51.632;4.950;2022-12-10T13:49:20;0.20;99.90
21331;DHT22;10824;51.632;4.950;2022-12-10T14:00:23;0.20;99.90
21331;DHT22;10824;51.632;4.950;2022-12-10T14:08:32;0.30;99.90
21331;DHT22;10824;51.632;4.950;2022-12-10T14:11:02;0.30;99.90
21331;DHT22;10824;51.632;4.950;2022-12-10T14:13:37;0.30;99.90
21331;DHT22;10824;51.632;4.950;2022-12-10T14:16:10;0.20;99.90
21331;DHT22;10824;51.632;4.950;2022-12-10T14:18:38;0.30;99.90
21331;DHT22;10824;51.632;4.950;2022-12-10T14:21:12;0.30;99.90
21331;DHT22;10824;51.632;4.950;2022-12-10T14:23:46;0.30;99.90
21331;DHT22;10824;51.632;4.950;2022-12-10T14:29:00;0.30;99.90
21331;DHT22;10824;51.632;4.950;2022-12-10T14:31:33;0.30;99.90
21331;DHT22;10824;51.632;4.950;2022-12-10T14:34:06;0.30;99.90
21331;DHT22;10824;51.632;4.950;2022-12-10T14:36:37;0.30;99.90
21331;DHT22;10824;51.632;4.950;2022-12-10T14:39:15;0.30;99.90
21331;DHT22;10824;51.632;4.950;2022-12-10T14:41:43;0.30;99.90
21331;DHT22;10824;51.632;4.950;2022-12-10T14:44:13;0.30;99.90
21331;DHT22;10824;51.632;4.950;2022-12-10T14:46:41;0.30;99.90
21331;DHT22;10824;51.632;4.950;2022-12-10T14:49:25;0.30;99.90
21331;DHT22;10824;51.632;4.950;2022-12-10T14:51:55;0.30;99.90
21331;DHT22;10824;51.632;4.950;2022-12-10T14:54:33;0.40;99.90
21331;DHT22;10824;51.632;4.950;2022-12-10T14:57:07;0.40;99.90
21331;DHT22;10824;51.632;4.950;2022-12-10T14:59:48;0.40;99.90
21331;DHT22;10824;51.632;4.950;2022-12-10T15:02:20;0.40;99.90
21331;DHT22;10824;51.632;4.950;2022-12-10T15:04:49;0.40;99.90
21331;DHT22;10824;51.632;4.950;2022-12-10T15:07:20;0.30;99.90
21331;DHT22;10824;51.632;4.950;2022-12-10T15:09:49;0.40;99.90
21331;DHT22;10824;51.632;4.950;2022-12-10T15:12:31;0.40;99.90
21331;DHT22;10824;51.632;4.950;2022-12-10T15:15:04;0.40;99.90
21331;DHT22;10824;51.632;4.950;2022-12-10T15:17:39;0.40;99.90
21331;DHT22;10824;51.632;4.950;2022-12-10T15:20:22;0.40;99.90
21331;DHT22;10824;51.632;4.950;2022-12-10T15:22:50;0.40;99.90
21331;DHT22;10824;51.632;4.950;2022-12-10T15:25:24;0.40;99.90
21331;DHT22;10824;51.632;4.950;2022-12-10T15:27:57;0.40;99.90
21331;DHT22;10824;51.632;4.950;2022-12-10T15:30:35;0.40;99.90
21331;DHT22;10824;51.632;4.950;2022-12-10T15:36:11;0.40;99.90
21331;DHT22;10824;51.632;4.950;2022-12-10T15:38:43;0.40;99.90
21331;DHT22;10824;51.632;4.950;2022-12-10T15:41:32;0.40;99.90
21331;DHT22;10824;51.632;4.950;2022-12-10T15:44:05;0.40;99.90
21331;DHT22;10824;51.632;4.950;2022-12-10T15:46:33;0.50;99.90
21331;DHT22;10824;51.632;4.950;2022-12-10T15:49:00;0.50;99.90
21331;DHT22;10824;51.632;4.950;2022-12-10T15:51:27;0.60;99.90
21331;DHT22;10824;51.632;4.950;2022-12-10T15:53:54;0.50;99.90
21331;DHT22;10824;51.632;4.950;2022-12-10T15:56:21;0.50;99.90
21331;DHT22;10824;51.632;4.950;2022-12-10T15:58:48;0.50;99.90
21331;DHT22;10824;51.632;4.950;2022-12-10T16:01:16;0.50;99.90
21331;DHT22;10824;51.632;4.950;2022-12-10T16:03:43;0.50;99.90
21331;DHT22;10824;51.632;4.950;2022-12-10T16:06:10;0.50;99.90
21331;DHT22;10824;51.632;4.950;2022-12-10T16:08:43;0.60;99.90
21331;DHT22;10824;51.632;4.950;2022-12-10T16:11:18;0.50;99.90
21331;DHT22;10824;51.632;4.950;2022-12-10T16:13:50;0.60;99.90
21331;DHT22;10824;51.632;4.950;2022-12-10T16:16:18;0.60;99.90
21331;DHT22;10824;51.632;4.950;2022-12-10T16:18:45;0.60;99.90
21331;DHT22;10824;51.632;4.950;2022-12-10T16:21:12;0.50;99.90
21331;DHT22;10824;51.632;4.950;2022-12-10T16:23:39;0.60;99.90
21331;DHT22;10824;51.632;4.950;2022-12-10T16:26:15;0.60;99.90
21331;DHT22;10824;51.632;4.950;2022-12-10T16:28:43;0.70;99.90
21331;DHT22;10824;51.632;4.950;2022-12-10T16:31:13;0.70;99.90
21331;DHT22;10824;51.632;4.950;2022-12-10T16:33:41;0.60;99.90
21331;DHT22;10824;51.632;4.950;2022-12-10T16:36:10;0.70;99.90
21331;DHT22;10824;51.632;4.950;2022-12-10T16:38:38;0.70;99.90
21331;DHT22;10824;51.632;4.950;2022-12-10T16:41:25;0.70;99.90
21331;DHT22;10824;51.632;4.950;2022-12-10T16:43:54;0.70;99.90
21331;DHT22;10824;51.632;4.950;2022-12-10T16:46:21;0.70;99.90
21331;DHT22;10824;51.632;4.950;2022-12-10T16:49:02;0.70;99.90
21331;DHT22;10824;51.632;4.950;2022-12-10T16:51:29;0.70;99.90
21331;DHT22;10824;51.632;4.950;2022-12-10T16:53:57;0.80;99.90
21331;DHT22;10824;51.632;4.950;2022-12-10T16:56:24;0.80;99.90
21331;DHT22;10824;51.632;4.950;2022-12-10T16:58:51;0.80;99.90
21331;DHT22;10824;51.632;4.950;2022-12-10T17:01:24;0.80;99.90
21331;DHT22;10824;51.632;4.950;2022-12-10T17:03:55;0.80;99.90
21331;DHT22;10824;51.632;4.950;2022-12-10T17:06:22;0.80;99.90
21331;DHT22;10824;51.632;4.950;2022-12-10T17:08:49;0.80;99.90
21331;DHT22;10824;51.632;4.950;2022-12-10T17:11:20;0.80;99.90
21331;DHT22;10824;51.632;4.950;2022-12-10T17:14:23;0.80;99.90
21331;DHT22;10824;51.632;4.950;2022-12-10T17:16:52;0.90;99.90
21331;DHT22;10824;51.632;4.950;2022-12-10T17:19:20;0.90;99.90
21331;DHT22;10824;51.632;4.950;2022-12-10T17:21:51;0.90;99.90
21331;DHT22;10824;51.632;4.950;2022-12-10T17:24:18;0.90;99.90
21331;DHT22;10824;51.632;4.950;2022-12-10T17:26:47;0.90;99.90
21331;DHT22;10824;51.632;4.950;2022-12-10T17:29:50;0.90;99.90
21331;DHT22;10824;51.632;4.950;2022-12-10T17:32:21;0.90;99.90
21331;DHT22;10824;51.632;4.950;2022-12-10T17:34:48;0.90;99.90
21331;DHT22;10824;51.632;4.950;2022-12-10T17:37:17;0.90;99.90
21331;DHT22;10824;51.632;4.950;2022-12-10T17:39:45;0.90;99.90
21331;DHT22;10824;51.632;4.950;2022-12-10T17:42:12;0.90;99.90
21331;DHT22;10824;51.632;4.950;2022-12-10T17:44:39;0.90;99.90
21331;DHT22;10824;51.632;4.950;2022-12-10T17:47:24;0.90;99.90
21331;DHT22;10824;51.632;4.950;2022-12-10T17:49:52;0.90;99.90
21331;DHT22;10824;51.632;4.950;2022-12-10T17:52:25;1.00;99.90
21331;DHT22;10824;51.632;4.950;2022-12-10T17:54:52;1.00;99.90
21331;DHT22;10824;51.632;4.950;2022-12-10T17:57:23;1.00;99.90
21331;DHT22;10824;51.632;4.950;2022-12-10T17:59:51;1.00;99.90
21331;DHT22;10824;51.632;4.950;2022-12-10T18:02:18;1.00;99.90
21331;DHT22;10824;51.632;4.950;2022-12-10T18:04:46;1.00;99.90
21331;DHT22;10824;51.632;4.950;2022-12-10T18:07:15;1.00;99.90
21331;DHT22;10824;51.632;4.950;2022-12-10T18:09:43;0.90;99.90
21331;DHT22;10824;51.632;4.950;2022-12-10T18:12:11;0.90;99.90
21331;DHT22;10824;51.632;4.950;2022-12-10T18:14:38;1.00;99.90
21331;DHT22;10824;51.632;4.950;2022-12-10T18:17:15;1.00;99.90